• Join FlightAware (Why Join?)
  • Login
  • US Flag GB Flag 
13:31 EDT


 

Airport Tracker/Info


-or-


 

Live Flight TrackerFlight Track Log ✈ N6711L ✈ 23-Jun-2013 ✈ KEYW - KPBI

Flight Track Log - Related Links

Times and Time Zones

All times are in EDT time to prevent confusion due to time zone crossing. See the N6711L flight status page for this flight to view local times or setup timezone preferences in your user account.

Time Position Orientation Groundspeed Altitude Reporting Facility
EDT Latitude Longitude Course Direction KTS MPH feet Rate Location/Type
11:40 25.0250 -81.5756 18° North 174 200 8,800  Level Miami Center
11:42 25.1158 -81.5422 18° North 173 199 8,700  Descending Miami Center
11:43 25.1583 -81.5142 31° Northeast 168 193 8,800  Climbing Miami Center
11:44 25.2011 -81.4836 33° Northeast 173 199 8,800  Level Miami Center
11:45 25.2439 -81.4553 31° Northeast 173 199 8,800 -60 Level Miami Center
11:46 25.2825 -81.4222 38° Northeast 173 199 8,700  Descending Miami Center
11:47 25.3231 -81.3939 32° Northeast 173 199 8,800  Climbing Miami Center
11:48 25.3636 -81.3611 36° Northeast 173 199 8,800  Level Miami Center
11:49 25.4042 -81.3325 33° Northeast 173 199 8,800  Level Miami Center
11:50 25.4450 -81.2997 36° Northeast 173 199 8,800  Level Miami Center
11:51 25.4897 -81.2692 32° Northeast 173 199 8,800  Level Miami Center
11:52 25.5283 -81.2383 36° Northeast 173 199 8,800  Level Miami Center
11:53 25.5706 -81.2144 27° Northeast 173 199 8,800 -60 Level Miami Center
11:54 25.6214 -81.1978 16° North 173 199 8,700 -60 Descending Miami Center
11:55 25.6678 -81.1811 18° North 173 199 8,700  Level Miami Center
11:56 25.7100 -81.1594 25° Northeast 173 199 8,800  Climbing Miami Center
11:57 25.7489 -81.1217 41° Northeast 167 192 8,700 -60 Descending Miami Center
11:58 25.7853 -81.0883 40° Northeast 172 198 8,700  Level Miami Center
11:59 25.8092 -81.0547 52° Northeast 175 201 8,700  Level Miami Center
12:00 25.8233 -81.0022 73° East 171 197 8,700  Level Miami Center
12:01 25.8658 -80.9736 31° Northeast 186 214 8,700  Level Miami Center
12:02 25.8983 -80.9308 50° Northeast 183 211 8,700  Level Miami Center
12:03 25.9389 -80.9022 32° Northeast 176 203 8,800  Climbing Miami Center
12:04 25.9836 -80.8644 37° Northeast 180 207 8,700 -60 Descending Miami Center
12:05 26.0264 -80.8311 35° Northeast 168 193 8,700  Level Miami Center
12:06 26.0608 -80.7931 45° Northeast 168 193 8,800  Climbing Miami Center
12:07 26.1014 -80.7597 36° Northeast 168 193 8,700 -60 Descending Miami Center
12:08 26.1478 -80.7425 18° North 168 193 8,700  Level Miami Center
12:09 26.1903 -80.7161 29° Northeast 181 208 8,700  Level Miami Center
12:10 26.2350 -80.6875 30° Northeast 179 206 8,700  Level Miami Center
12:11 26.2775 -80.6589 31° Northeast 177 204 8,700  Level Miami Center
12:12 26.3136 -80.6275 38° Northeast 178 205 8,700 -60 Level Miami Center
12:13 26.3583 -80.5964 32° Northeast 177 204 8,600 -360 Descending Miami Center
12:14 26.4097 -80.5542 36° Northeast 193 222 8,000 -720 Descending Miami Center
12:15 26.4544 -80.5206 34° Northeast 201 231 7,100 -840 Descending Miami Center
12:16 26.5053 -80.4853 32° Northeast 205 236 6,300 -780 Descending Miami Center
12:17 26.5458 -80.4517 37° Northeast 201 231 5,600 -780 Descending Miami Center
12:18 26.5947 -80.4183 31° Northeast 202 232 4,800 -900 Descending Miami Center
12:19 26.6475 -80.3919 24° Northeast 202 232 3,800 -900 Descending Miami Center
12:20 26.6983 -80.3631 27° Northeast 196 226 3,000 -840 Descending Miami Center
12:22 26.6940 -80.2860 70° East  Level Estimated
12:29 26.6832 -80.0956 70° East  Level Estimated
12:30 26.6832 -80.0956 70° East  Level Estimated
12:31 26.6832 -80.0956 70° East  Level Estimated
12:32 26.6832 -80.0956 70° East  Level Estimated
12:33 26.6832 -80.0956 70° East  Level Estimated
12:34 26.6832 -80.0956 70° East  Level Estimated
12:35 26.6832 -80.0956 70° East  Level Estimated
12:36 26.6832 -80.0956 70° East  Level Estimated
12:37 26.6832 -80.0956 70° East  Level Estimated
12:38 26.6832 -80.0956 70° East  Level Estimated
12:39 26.6832 -80.0956 70° East  Level Estimated
12:40 26.6832 -80.0956 70° East  Level Estimated
12:41 26.6832 -80.0956 70° East  Level Estimated
12:42 26.6832 -80.0956 70° East  Level Estimated